Time;durP1;ratioP1;P1;durP2;ratioP2;P2;SDS_P1;SDS_P2;PMS_P1;PMS_P2;Temp;Humidity;BMP_temperature;BMP_pressure;BME280_temperature;BME280_humidity;BME280_pressure;Samples;Min_cycle;Max_cycle;Signal;HPM_P1;HPM_P2
2023/01/15 00:00:34;;;;;;;;;;;;;;;-7.70;32.39;99048.41;6293430;28;19990;-66
2023/01/15 00:03:37;;;;;;;;;;;;;;;-7.58;32.24;99044.63;6287284;28;20020;-67
2023/01/15 00:06:41;;;;;;;;;;;;;;;-7.70;32.60;99045.84;6298430;28;20062;-66
2023/01/15 00:09:42;;;;;;;;;;;;;;;-7.57;31.89;99041.25;6310040;28;20294;-65
2023/01/15 00:12:46;;;;;;;;;;;;;;;-7.63;31.86;99041.84;6307811;28;20018;-66
2023/01/15 00:15:50;;;;;;;;;;;;;;;-7.57;31.61;99046.34;6301697;28;19924;-67
2023/01/15 00:18:55;;;;;;;;;;;;;;;-7.74;32.56;99032.88;6259317;28;19925;-66
2023/01/15 00:21:58;;;;;;;;;;;;;;;-7.78;32.46;99031.00;6293315;28;19924;-66
2023/01/15 00:28:24;;;;;;;;;;;;;;;-7.57;32.22;99031.00;6320974;28;20015;-66
2023/01/15 00:31:28;;;;;;;;;;;;;;;-7.52;32.21;99034.63;6295541;28;19924;-66
2023/01/15 00:34:34;;;;;;;;;;;;;;;-7.48;32.16;99031.38;6270519;28;19924;-66
2023/01/15 00:37:38;;;;;;;;;;;;;;;-7.40;32.44;99029.16;6278275;28;19920;-67
2023/01/15 00:40:44;;;;;;;;;;;;;;;-7.37;32.68;99035.25;6320960;28;20005;-66
2023/01/15 00:43:45;;;;;;;;;;;;;;;-7.18;31.90;99030.88;6313139;28;20447;-66
2023/01/15 00:46:49;;;;;;;;;;;;;;;-7.33;32.05;99026.91;6281191;28;20402;-66
2023/01/15 00:49:52;;;;;;;;;;;;;;;-7.42;31.94;99025.63;6287321;28;19924;-66
2023/01/15 00:52:58;;;;;;;;;;;;;;;-7.47;32.14;99033.16;6287437;28;20387;-66
2023/01/15 00:56:04;;;;;;;;;;;;;;;-7.51;32.08;99028.69;6270565;28;20390;-66
2023/01/15 00:59:05;;;;;;;;;;;;;;;-7.59;32.18;99024.94;6273152;28;19924;-66
2023/01/15 01:02:08;;;;;;;;;;;;;;;-7.30;31.51;99026.16;6287879;28;19924;-66
2023/01/15 01:05:12;;;;;;;;;;;;;;;-7.40;32.15;99029.16;6284365;28;19924;-66
2023/01/15 01:08:15;;;;;;;;;;;;;;;-7.51;31.87;99032.13;6296956;28;19923;-66
2023/01/15 01:11:25;;;;;;;;;;;;;;;-7.63;32.69;99029.06;6301051;28;19924;-67
2023/01/15 01:14:31;;;;;;;;;;;;;;;-7.66;32.85;99026.41;6314202;28;20287;-67
2023/01/15 01:17:32;;;;;;;;;;;;;;;-7.69;32.84;99026.28;6280808;28;19920;-66
2023/01/15 01:20:33;;;;;;;;;;;;;;;-7.72;32.47;99037.25;6290810;28;19935;-66
2023/01/15 01:23:35;;;;;;;;;;;;;;;-7.86;32.32;99033.22;6292437;28;19927;-66
2023/01/15 01:26:43;;;;;;;;;;;;;;;-7.99;33.14;99033.50;6295443;28;20002;-66
2023/01/15 01:29:45;;;;;;;;;;;;;;;-8.18;32.86;99045.50;6275200;28;19932;-65
2023/01/15 01:32:49;;;;;;;;;;;;;;;-8.31;33.69;99035.53;6279749;28;19972;-65
2023/01/15 01:35:55;;;;;;;;;;;;;;;-8.44;33.89;99038.38;6274118;28;19921;-65
2023/01/15 01:38:59;;;;;;;;;;;;;;;-8.58;34.22;99035.22;6301364;28;19924;-66
2023/01/15 01:42:00;;;;;;;;;;;;;;;-8.69;34.33;99044.97;6320165;28;19920;-66
2023/01/15 01:45:07;;;;;;;;;;;;;;;-8.85;34.88;99050.16;6300278;28;20390;-65
2023/01/15 01:48:11;;;;;;;;;;;;;;;-8.88;34.47;99042.34;6294346;28;19924;-66
2023/01/15 01:51:15;;;;;;;;;;;;;;;-8.86;34.50;99036.53;6323653;28;19931;-66
2023/01/15 01:54:17;;;;;;;;;;;;;;;-8.69;34.69;99037.31;6320962;28;20309;-66
2023/01/15 01:57:20;;;;;;;;;;;;;;;-8.60;34.16;99040.25;6276414;28;19925;-66
2023/01/15 02:00:23;;;;;;;;;;;;;;;-8.30;33.31;99039.84;6282785;28;19925;-66
2023/01/15 02:03:29;;;;;;;;;;;;;;;-7.93;32.43;99046.53;6274563;28;20398;-66
2023/01/15 02:06:31;;;;;;;;;;;;;;;-7.61;31.81;99039.34;6292138;28;19924;-67
2023/01/15 02:09:34;;;;;;;;;;;;;;;-7.28;31.37;99035.59;6313430;28;20024;-65
2023/01/15 02:12:38;;;;;;;;;;;;;;;-7.07;30.63;99040.72;6321775;28;19928;-66
2023/01/15 02:15:44;;;;;;;;;;;;;;;-6.87;30.75;99028.69;6291235;28;19924;-67
2023/01/15 02:19:01;;;;;;;;;;;;;;;-6.79;30.58;99037.56;6291354;28;19924;-66
2023/01/15 02:22:02;;;;;;;;;;;;;;;-6.87;30.87;99033.81;6273239;28;19964;-66
2023/01/15 02:25:16;;;;;;;;;;;;;;;-6.88;30.39;99026.97;6315221;28;20379;-66
2023/01/15 02:28:27;;;;;;;;;;;;;;;-6.84;30.20;99031.38;6321050;28;20389;-66
2023/01/15 02:31:28;;;;;;;;;;;;;;;-6.91;30.70;99024.25;6290211;28;19963;-65
2023/01/15 02:34:35;;;;;;;;;;;;;;;-6.91;30.77;99031.94;6314592;28;19967;-66
2023/01/15 02:37:43;;;;;;;;;;;;;;;-6.93;30.25;99008.00;6274619;28;20297;-66
2023/01/15 02:40:45;;;;;;;;;;;;;;;-6.93;30.58;99022.47;6280458;28;20031;-66
2023/01/15 02:43:53;;;;;;;;;;;;;;;-6.85;29.96;99026.19;6284362;28;20412;-65
2023/01/15 02:46:55;;;;;;;;;;;;;;;-6.62;29.68;99024.53;6287340;28;19939;-66
2023/01/15 02:50:01;;;;;;;;;;;;;;;-6.64;29.25;99021.88;6294887;28;20067;-66
2023/01/15 02:53:06;;;;;;;;;;;;;;;-6.68;29.65;99024.25;6287089;28;19932;-66
2023/01/15 02:56:15;;;;;;;;;;;;;;;-6.62;29.49;99019.41;6298315;28;20023;-66
2023/01/15 02:59:29;;;;;;;;;;;;;;;-6.47;29.43;99009.72;6271219;28;20613;-66
2023/01/15 03:02:47;;;;;;;;;;;;;;;-6.41;29.05;99012.50;6298061;28;20037;-67
2023/01/15 03:05:53;;;;;;;;;;;;;;;-6.39;28.99;99013.44;6295539;28;20034;-66
2023/01/15 03:08:54;;;;;;;;;;;;;;;-6.50;29.24;99012.16;6303404;28;20022;-66
2023/01/15 03:12:04;;;;;;;;;;;;;;;-6.56;28.92;99012.81;6273330;28;19932;-65
2023/01/15 03:16:33;;;;;;;;;;;;;;;-6.53;28.53;99009.50;6305867;28;20398;-66
2023/01/15 03:18:52;;;;;;;;;;;;;;;-6.48;28.58;99012.19;6275869;28;20298;-66
2023/01/15 03:22:01;;;;;;;;;;;;;;;-6.43;28.51;99015.81;6279007;28;19924;-66
2023/01/15 03:25:05;;;;;;;;;;;;;;;-6.39;28.61;99000.63;6281370;28;20306;-67
2023/01/15 03:28:11;;;;;;;;;;;;;;;-6.39;28.96;99018.56;6294600;28;19978;-66
2023/01/15 03:31:12;;;;;;;;;;;;;;;-6.42;28.88;99022.69;6311369;28;20073;-66
2023/01/15 03:34:13;;;;;;;;;;;;;;;-6.50;28.72;99019.84;6278056;28;19928;-67
2023/01/15 03:37:19;;;;;;;;;;;;;;;-6.50;28.66;99024.09;6293666;28;20566;-67
2023/01/15 03:40:23;;;;;;;;;;;;;;;-6.59;28.74;99029.75;6287949;28;20026;-66
2023/01/15 03:43:45;;;;;;;;;;;;;;;-6.71;29.58;99034.41;6273256;28;20414;-66
2023/01/15 03:46:54;;;;;;;;;;;;;;;-6.81;29.33;99039.16;6279122;28;20020;-67
2023/01/15 03:49:57;;;;;;;;;;;;;;;-6.86;29.63;99045.78;6306686;28;19924;-67
2023/01/15 03:53:10;;;;;;;;;;;;;;;-6.97;29.74;99052.19;6303453;28;19924;-66
2023/01/15 03:56:22;;;;;;;;;;;;;;;-7.12;30.35;99056.72;6281867;28;20453;-67
2023/01/15 03:59:28;;;;;;;;;;;;;;;-7.27;30.28;99052.72;6288732;28;19924;-66
2023/01/15 04:02:31;;;;;;;;;;;;;;;-7.16;30.21;99054.81;6276671;28;20382;-67
2023/01/15 04:05:36;;;;;;;;;;;;;;;-7.35;30.19;99056.66;6313216;28;19924;-68
2023/01/15 04:08:39;;;;;;;;;;;;;;;-7.43;31.07;99060.56;6315910;28;20412;-68
2023/01/15 04:11:42;;;;;;;;;;;;;;;-7.58;31.13;99067.63;6316632;28;19924;-69
2023/01/15 04:14:43;;;;;;;;;;;;;;;-7.74;31.42;99068.66;6321682;28;19923;-69
2023/01/15 04:17:47;;;;;;;;;;;;;;;-7.92;31.45;99069.63;6306173;28;20029;-68
2023/01/15 04:20:50;;;;;;;;;;;;;;;-8.02;32.16;99064.91;6307910;28;20301;-67
2023/01/15 04:23:51;;;;;;;;;;;;;;;-8.06;32.36;99072.38;6302137;28;19923;-67
2023/01/15 04:26:53;;;;;;;;;;;;;;;-8.10;32.44;99071.34;6284334;28;19928;-67
2023/01/15 04:29:54;;;;;;;;;;;;;;;-8.16;32.47;99079.63;6274725;28;19939;-67
2023/01/15 04:32:55;;;;;;;;;;;;;;;-8.19;32.97;99084.59;6283736;28;19925;-66
2023/01/15 04:36:00;;;;;;;;;;;;;;;-8.19;32.82;99079.50;6269816;28;20053;-66
2023/01/15 04:39:03;;;;;;;;;;;;;;;-8.18;32.93;99095.69;6316355;28;19924;-66
2023/01/15 04:45:24;;;;;;;;;;;;;;;-7.91;32.07;99099.47;6300521;28;20397;-66
2023/01/15 04:48:28;;;;;;;;;;;;;;;-7.81;32.41;99103.31;6317127;28;19924;-66
2023/01/15 04:51:29;;;;;;;;;;;;;;;-7.66;32.18;99107.31;6314429;28;19931;-66
2023/01/15 04:54:30;;;;;;;;;;;;;;;-7.63;31.90;99102.34;6302137;28;20065;-66
2023/01/15 04:57:35;;;;;;;;;;;;;;;-7.59;32.25;99101.66;6317223;28;19994;-67
2023/01/15 05:00:40;;;;;;;;;;;;;;;-7.52;32.21;99101.13;6287901;28;20374;-66
2023/01/15 05:03:42;;;;;;;;;;;;;;;-7.34;32.42;99116.34;6270987;28;20290;-66
2023/01/15 05:06:48;;;;;;;;;;;;;;;-7.27;32.53;99114.13;6270397;28;19925;-67
2023/01/15 05:09:55;;;;;;;;;;;;;;;-6.60;30.01;99117.63;6282590;28;19921;-66
2023/01/15 05:12:59;;;;;;;;;;;;;;;-6.51;29.15;99112.88;6270618;28;20413;-66
2023/01/15 05:16:13;;;;;;;;;;;;;;;-6.34;28.93;99104.13;6270374;28;20409;-67
2023/01/15 05:19:14;;;;;;;;;;;;;;;-6.22;28.88;99107.97;6310060;28;19931;-66
2023/01/15 05:22:15;;;;;;;;;;;;;;;-6.08;28.98;99100.78;6324974;28;20258;-67
2023/01/15 05:25:22;;;;;;;;;;;;;;;-5.83;28.51;99097.38;6311043;28;19932;-67
2023/01/15 05:28:25;;;;;;;;;;;;;;;-5.51;27.88;99107.06;6275477;28;19933;-67
2023/01/15 05:31:29;;;;;;;;;;;;;;;-5.23;27.02;99101.19;6275634;28;19924;-67
2023/01/15 05:34:33;;;;;;;;;;;;;;;-4.97;26.47;99099.47;6289306;28;20072;-67
2023/01/15 05:37:38;;;;;;;;;;;;;;;-4.76;26.10;99100.97;6313139;28;19924;-67
2023/01/15 05:40:42;;;;;;;;;;;;;;;-4.78;26.40;99108.63;6313396;28;19924;-67
2023/01/15 05:43:48;;;;;;;;;;;;;;;-4.45;25.92;99099.34;6284185;28;19932;-66
2023/01/15 05:46:52;;;;;;;;;;;;;;;-4.48;26.36;99101.81;6274426;28;20314;-67
2023/01/15 05:49:53;;;;;;;;;;;;;;;-4.07;25.51;99103.06;6319870;28;19931;-66
2023/01/15 05:52:55;;;;;;;;;;;;;;;-4.10;25.48;99105.53;6303346;28;19963;-65
2023/01/15 05:55:59;;;;;;;;;;;;;;;-4.21;25.65;99106.94;6321547;28;19928;-66
2023/01/15 05:59:00;;;;;;;;;;;;;;;-4.19;26.40;99106.16;6319014;28;19928;-66
2023/01/15 06:02:02;;;;;;;;;;;;;;;-4.03;26.05;99101.44;6299285;28;19925;-67
2023/01/15 06:05:04;;;;;;;;;;;;;;;-3.68;25.31;99105.88;6315568;28;19931;-66
2023/01/15 06:08:05;;;;;;;;;;;;;;;-3.73;25.63;99107.44;6318798;28;19924;-66
2023/01/15 06:11:13;;;;;;;;;;;;;;;-3.82;26.13;99112.34;6321404;28;19923;-67
2023/01/15 06:14:16;;;;;;;;;;;;;;;-3.71;25.81;99105.81;6323896;28;19924;-67
2023/01/15 06:17:20;;;;;;;;;;;;;;;-3.59;25.56;99109.50;6299117;28;20059;-66
2023/01/15 06:20:23;;;;;;;;;;;;;;;-3.76;26.09;99117.66;6280820;28;19931;-67
2023/01/15 06:23:27;;;;;;;;;;;;;;;-3.71;25.81;99116.09;6320141;28;19924;-68
2023/01/15 06:26:34;;;;;;;;;;;;;;;-3.69;25.93;99122.13;6324032;28;19924;-66
2023/01/15 06:29:35;;;;;;;;;;;;;;;-3.67;26.05;99123.06;6300696;28;19976;-66
2023/01/15 06:32:37;;;;;;;;;;;;;;;-3.41;25.45;99117.75;6322604;28;20018;-67
2023/01/15 06:35:41;;;;;;;;;;;;;;;-3.49;25.78;99116.66;6259461;28;20298;-66
2023/01/15 06:38:42;;;;;;;;;;;;;;;-3.43;26.10;99120.25;6294929;28;19924;-66
2023/01/15 06:48:23;;;;;;;;;;;;;;;-3.09;26.27;99110.84;6315415;28;19924;-67
2023/01/15 06:51:26;;;;;;;;;;;;;;;-2.72;25.66;99098.84;6316706;28;20374;-66
2023/01/15 06:54:33;;;;;;;;;;;;;;;-2.55;25.18;99099.25;6317391;28;19923;-67
2023/01/15 06:57:39;;;;;;;;;;;;;;;-2.40;25.27;99102.19;6323008;28;19931;-67
2023/01/15 07:00:44;;;;;;;;;;;;;;;-2.27;25.45;99104.16;6307394;28;20386;-67
2023/01/15 07:03:45;;;;;;;;;;;;;;;-1.93;24.80;99084.25;6321043;28;20377;-68
2023/01/15 07:06:48;;;;;;;;;;;;;;;-1.84;24.79;99078.41;6323223;28;20026;-66
2023/01/15 07:09:49;;;;;;;;;;;;;;;-1.62;25.08;99090.03;6302842;28;19924;-67
2023/01/15 07:12:55;;;;;;;;;;;;;;;-1.47;24.88;99080.00;6322462;28;19924;-66
2023/01/15 07:15:57;;;;;;;;;;;;;;;-1.28;25.01;99075.16;6321733;28;19957;-68
2023/01/15 07:18:58;;;;;;;;;;;;;;;-1.02;24.42;99084.22;6319029;28;19935;-67
2023/01/15 07:21:59;;;;;;;;;;;;;;;-0.81;24.41;99077.66;6321768;28;20412;-68
2023/01/15 07:25:00;;;;;;;;;;;;;;;-0.49;23.21;99081.59;6312060;28;20081;-67
2023/01/15 07:28:01;;;;;;;;;;;;;;;0.59;23.17;99088.97;6314388;28;19957;-67
2023/01/15 07:31:04;;;;;;;;;;;;;;;1.82;22.42;99099.50;6322503;28;19924;-66
2023/01/15 07:34:08;;;;;;;;;;;;;;;3.14;21.22;99111.16;6321789;28;19968;-68
2023/01/15 07:37:14;;;;;;;;;;;;;;;4.95;20.46;99101.09;6321548;28;20461;-66
2023/01/15 07:40:15;;;;;;;;;;;;;;;6.07;19.78;99105.34;6311193;28;20306;-68
2023/01/15 07:50:04;;;;;;;;;;;;;;;8.57;18.31;99104.88;6296885;28;19931;-66
2023/01/15 07:53:05;;;;;;;;;;;;;;;8.48;18.46;99106.78;6293227;28;19924;-67
2023/01/15 07:56:06;;;;;;;;;;;;;;;8.36;19.25;99117.50;6277282;28;19931;-70
2023/01/15 07:59:09;;;;;;;;;;;;;;;8.27;20.13;99113.31;6284463;28;19935;-71
2023/01/15 08:02:11;;;;;;;;;;;;;;;8.65;18.99;99118.69;6257172;28;19925;-70
2023/01/15 08:05:17;;;;;;;;;;;;;;;7.83;17.69;99124.63;6290376;28;19924;-69
2023/01/15 08:08:18;;;;;;;;;;;;;;;6.64;19.08;99122.09;6296000;28;20317;-70
2023/01/15 08:18:05;;;;;;;;;;;;;;;7.59;16.48;99118.94;6294214;28;19986;-72
2023/01/15 08:21:14;;;;;;;;;;;;;;;8.02;15.76;99093.72;6318779;28;19931;-70
2023/01/15 08:24:20;;;;;;;;;;;;;;;8.70;14.98;99090.59;6278839;28;19925;-69
2023/01/15 08:27:22;;;;;;;;;;;;;;;9.41;14.95;99095.06;6291596;28;20278;-69
2023/01/15 08:30:24;;;;;;;;;;;;;;;10.06;14.47;99094.28;6288053;28;19935;-72
2023/01/15 08:33:28;;;;;;;;;;;;;;;10.89;13.64;99094.53;6277008;28;19995;-70
2023/01/15 08:36:31;;;;;;;;;;;;;;;11.30;13.36;99097.66;6281713;28;19925;-70
2023/01/15 08:39:40;;;;;;;;;;;;;;;10.89;13.11;99102.44;6292477;28;19936;-74
2023/01/15 08:42:41;;;;;;;;;;;;;;;10.28;13.70;99100.69;6296026;28;19931;-71
2023/01/15 08:45:42;;;;;;;;;;;;;;;10.43;13.42;99103.81;6282291;28;20011;-75
2023/01/15 08:48:45;;;;;;;;;;;;;;;10.76;13.39;99102.81;6279631;28;20431;-72
2023/01/15 08:51:52;;;;;;;;;;;;;;;10.98;13.42;99088.97;6290701;28;19929;-75
2023/01/15 08:54:56;;;;;;;;;;;;;;;11.62;13.77;99104.50;6305240;28;19994;-72
2023/01/15 08:58:03;;;;;;;;;;;;;;;13.14;13.08;99091.06;6263699;28;19931;-70
2023/01/15 09:01:11;;;;;;;;;;;;;;;13.47;12.50;99100.31;6297884;28;19925;-70
2023/01/15 09:04:15;;;;;;;;;;;;;;;13.23;11.94;99098.63;6295688;28;19931;-71
2023/01/15 09:07:19;;;;;;;;;;;;;;;13.17;11.97;99091.78;6298955;28;19931;-72
2023/01/15 09:10:23;;;;;;;;;;;;;;;12.72;11.85;99068.88;6291563;28;20035;-69
2023/01/15 09:13:30;;;;;;;;;;;;;;;12.23;12.31;99075.13;6296796;28;19928;-70
2023/01/15 09:16:37;;;;;;;;;;;;;;;11.00;12.74;99069.56;6324781;28;19924;-70
2023/01/15 09:19:39;;;;;;;;;;;;;;;10.21;13.24;99061.41;6308137;28;19928;-71
2023/01/15 09:22:47;;;;;;;;;;;;;;;10.09;13.75;99062.63;6304648;28;20073;-70
2023/01/15 09:26:14;;;;;;;;;;;;;;;10.49;13.26;99066.78;6283006;28;19928;-75
2023/01/15 09:29:39;;;;;;;;;;;;;;;11.38;13.10;99058.69;6255509;28;19924;-72
2023/01/15 09:32:44;;;;;;;;;;;;;;;12.35;12.70;99058.88;6291896;28;19989;-72
2023/01/15 09:35:48;;;;;;;;;;;;;;;13.35;12.55;99074.34;6281252;28;20411;-73
2023/01/15 09:38:52;;;;;;;;;;;;;;;13.64;12.08;99085.50;6294688;28;19931;-71
2023/01/15 09:42:14;;;;;;;;;;;;;;;12.99;13.32;99082.81;6284570;28;20512;-72
2023/01/15 09:45:25;;;;;;;;;;;;;;;11.59;13.46;99078.22;6298470;28;20463;-72
2023/01/15 09:48:41;;;;;;;;;;;;;;;10.19;14.53;99079.00;6306785;28;20259;-72
2023/01/15 09:51:54;;;;;;;;;;;;;;;9.17;14.38;99078.13;6270963;28;19924;-73
2023/01/15 09:55:01;;;;;;;;;;;;;;;8.03;15.41;99077.94;6303963;28;20010;-72
2023/01/15 09:58:04;;;;;;;;;;;;;;;7.14;15.29;99095.22;6301571;28;19924;-72
2023/01/15 10:01:14;;;;;;;;;;;;;;;5.69;16.64;99083.94;6300270;28;19929;-71
2023/01/15 10:04:20;;;;;;;;;;;;;;;5.25;17.51;99091.28;6297597;28;19931;-71
2023/01/15 10:07:29;;;;;;;;;;;;;;;5.38;17.43;99099.91;6295102;28;19924;-72
2023/01/15 10:10:41;;;;;;;;;;;;;;;5.11;17.27;99080.09;6284861;28;19925;-70
2023/01/15 10:13:44;;;;;;;;;;;;;;;4.67;17.71;99083.84;6276456;28;19924;-74
2023/01/15 10:16:47;;;;;;;;;;;;;;;4.22;18.25;99076.28;6282999;28;19954;-72
2023/01/15 10:19:51;;;;;;;;;;;;;;;3.84;18.78;99084.22;6283142;28;19986;-74
2023/01/15 10:23:13;;;;;;;;;;;;;;;3.39;19.12;99080.81;6279076;28;19925;-70
2023/01/15 10:26:27;;;;;;;;;;;;;;;2.82;19.75;99079.94;6283138;28;20022;-70
2023/01/15 10:29:37;;;;;;;;;;;;;;;2.59;19.75;99090.28;6271660;28;19936;-70
2023/01/15 10:32:48;;;;;;;;;;;;;;;2.10;20.60;99079.72;6287895;28;20086;-71
2023/01/15 10:36:11;;;;;;;;;;;;;;;1.51;20.87;99078.53;6309617;28;20005;-70
2023/01/15 10:39:35;;;;;;;;;;;;;;;0.92;21.68;99071.16;6297293;28;20390;-70
2023/01/15 10:42:57;;;;;;;;;;;;;;;0.59;21.38;99063.06;6273082;28;19924;-70
2023/01/15 10:46:09;;;;;;;;;;;;;;;0.28;22.34;99072.22;6304880;28;19924;-71
2023/01/15 10:49:16;;;;;;;;;;;;;;;-0.15;21.91;99082.06;6305832;28;19925;-72
2023/01/15 10:52:20;;;;;;;;;;;;;;;-0.73;22.61;99076.94;6298435;28;19928;-71
2023/01/15 10:55:27;;;;;;;;;;;;;;;-1.08;23.48;99073.75;6297411;28;19962;-72
2023/01/15 10:59:00;;;;;;;;;;;;;;;-1.44;24.08;99076.59;6283729;28;19977;-71
2023/01/15 11:02:02;;;;;;;;;;;;;;;-1.65;23.77;99079.63;6259869;28;19975;-69
2023/01/15 11:05:03;;;;;;;;;;;;;;;-1.41;23.90;99074.06;6272059;28;19924;-72
2023/01/15 11:08:12;;;;;;;;;;;;;;;-1.90;24.44;99073.13;6281399;28;20406;-70
2023/01/15 11:11:19;;;;;;;;;;;;;;;-1.90;24.26;99079.16;6278614;28;20392;-68
2023/01/15 11:21:17;;;;;;;;;;;;;;;-2.07;24.09;99081.41;6301045;28;19960;-71
2023/01/15 11:24:21;;;;;;;;;;;;;;;-2.11;23.69;99074.44;6279856;28;19921;-69
2023/01/15 11:27:30;;;;;;;;;;;;;;;-2.26;23.49;99068.97;6271877;28;19925;-69
2023/01/15 11:30:38;;;;;;;;;;;;;;;-2.44;24.02;99074.56;6286388;28;20007;-68
2023/01/15 11:33:56;;;;;;;;;;;;;;;-2.60;23.72;99064.78;6254658;28;19977;-63
2023/01/15 11:37:00;;;;;;;;;;;;;;;-2.57;24.03;99077.75;6283416;28;19924;-65
2023/01/15 11:40:06;;;;;;;;;;;;;;;-2.56;23.58;99089.78;6290467;28;19932;-68
2023/01/15 11:53:45;;;;;;;;;;;;;;;-2.46;23.41;99091.75;6283838;28;20027;-64
2023/01/15 11:56:48;;;;;;;;;;;;;;;-3.03;24.02;99090.41;6271780;28;20078;-65
2023/01/15 11:59:53;;;;;;;;;;;;;;;-3.18;24.36;99088.31;6264954;28;19928;-65
2023/01/15 12:03:02;;;;;;;;;;;;;;;-3.36;24.62;99093.00;6297435;28;19925;-65
2023/01/15 12:06:08;;;;;;;;;;;;;;;-3.63;24.74;99088.84;6287099;28;19928;-66
2023/01/15 12:09:24;;;;;;;;;;;;;;;-3.59;24.86;99097.53;6285592;28;19928;-71
2023/01/15 12:12:38;;;;;;;;;;;;;;;-3.57;25.04;99082.13;6272286;28;20033;-66
2023/01/15 12:16:08;;;;;;;;;;;;;;;-3.44;25.00;99089.34;6282824;28;19925;-67
2023/01/15 12:19:23;;;;;;;;;;;;;;;-3.80;25.20;99100.38;6269707;28;19924;-65
2023/01/15 12:22:38;;;;;;;;;;;;;;;-4.09;25.82;99113.28;6289637;28;19924;-66
2023/01/15 12:25:48;;;;;;;;;;;;;;;-3.78;26.04;99113.31;6278309;28;20043;-66
2023/01/15 12:28:52;;;;;;;;;;;;;;;-3.69;25.99;99114.41;6277050;28;19924;-65
2023/01/15 12:32:02;;;;;;;;;;;;;;;-3.97;26.54;99107.63;6272421;28;20031;-65
2023/01/15 12:35:07;;;;;;;;;;;;;;;-4.15;26.76;99118.25;6283574;28;19982;-65
2023/01/15 12:38:23;;;;;;;;;;;;;;;-4.42;26.69;99120.00;6278246;28;20009;-66
2023/01/15 12:45:15;;;;;;;;;;;;;;;-4.22;25.75;99116.31;6286615;28;19920;-65
2023/01/15 12:48:25;;;;;;;;;;;;;;;-4.29;25.33;99137.53;6284793;28;20397;-65
2023/01/15 12:51:38;;;;;;;;;;;;;;;-4.06;25.23;99113.38;6286685;28;19924;-66
2023/01/15 12:54:42;;;;;;;;;;;;;;;-4.03;25.04;99122.00;6282236;28;20286;-66
2023/01/15 12:57:44;;;;;;;;;;;;;;;-4.26;25.25;99124.78;6294831;28;19931;-66
2023/01/15 13:00:48;;;;;;;;;;;;;;;-4.16;25.36;99107.91;6274810;28;20369;-67
2023/01/15 13:04:11;;;;;;;;;;;;;;;-4.22;25.41;99111.19;6270954;28;20290;-68
2023/01/15 13:07:17;;;;;;;;;;;;;;;-4.25;25.44;99100.81;6278875;28;19924;-67
2023/01/15 13:10:23;;;;;;;;;;;;;;;-4.23;25.68;99103.44;6295701;28;19921;-68
2023/01/15 13:13:32;;;;;;;;;;;;;;;-4.75;26.35;99113.00;6268173;28;19925;-68
2023/01/15 13:16:37;;;;;;;;;;;;;;;-4.93;26.71;99107.25;6293478;28;19924;-68
2023/01/15 13:19:56;;;;;;;;;;;;;;;-5.11;27.02;99113.53;6284871;28;19924;-68
2023/01/15 13:23:06;;;;;;;;;;;;;;;-5.31;27.32;99118.00;6289909;28;20394;-68
2023/01/15 13:26:40;;;;;;;;;;;;;;;-5.25;27.00;99114.78;6292835;28;20307;-67
2023/01/15 13:29:42;;;;;;;;;;;;;;;-5.61;27.45;99116.94;6223140;28;19925;-68
2023/01/15 13:32:48;;;;;;;;;;;;;;;-5.76;27.98;99120.72;6290587;28;19939;-68
2023/01/15 13:36:15;;;;;;;;;;;;;;;-5.49;27.59;99115.69;6285419;28;20340;-69
2023/01/15 13:39:21;;;;;;;;;;;;;;;-5.54;27.64;99111.22;6264401;28;20079;-67
2023/01/15 13:42:31;;;;;;;;;;;;;;;-5.71;27.98;99123.47;6289461;28;20313;-65
2023/01/15 13:45:46;;;;;;;;;;;;;;;-5.47;27.92;99124.31;6291803;28;19924;-67
2023/01/15 13:48:49;;;;;;;;;;;;;;;-5.53;27.77;99124.09;6296752;28;19975;-66
2023/01/15 13:51:52;;;;;;;;;;;;;;;-5.63;27.93;99127.19;6287616;28;20453;-67
2023/01/15 13:55:19;;;;;;;;;;;;;;;-5.73;28.26;99127.66;6287507;28;19925;-66
2023/01/15 13:58:27;;;;;;;;;;;;;;;-5.34;27.94;99119.63;6281330;28;19924;-65
2023/01/15 14:01:36;;;;;;;;;;;;;;;-5.55;27.58;99123.16;6280049;28;19930;-64
2023/01/15 14:04:37;;;;;;;;;;;;;;;-5.81;27.75;99122.25;6275118;28;19932;-68
2023/01/15 14:07:41;;;;;;;;;;;;;;;-5.76;28.22;99118.16;6261504;28;19924;-67
2023/01/15 14:10:47;;;;;;;;;;;;;;;-5.84;28.64;99121.28;6283123;28;20329;-67
2023/01/15 14:13:57;;;;;;;;;;;;;;;-5.88;28.14;99121.16;6286509;28;19924;-66
2023/01/15 14:17:11;;;;;;;;;;;;;;;-6.03;28.31;99123.19;6293753;28;19924;-67
2023/01/15 14:20:32;;;;;;;;;;;;;;;-6.01;28.23;99121.56;6287184;28;19925;-66
2023/01/15 14:23:59;;;;;;;;;;;;;;;-6.00;28.61;99114.72;6273121;28;19932;-66
2023/01/15 14:27:03;;;;;;;;;;;;;;;-5.80;28.16;99105.16;6269232;28;20415;-67
2023/01/15 14:30:09;;;;;;;;;;;;;;;-5.77;27.64;99102.75;6287361;28;20031;-67
2023/01/15 14:33:15;;;;;;;;;;;;;;;-5.91;27.55;99100.53;6290390;28;19925;-68
2023/01/15 14:36:25;;;;;;;;;;;;;;;-5.76;28.00;99094.22;6287409;28;19932;-68
2023/01/15 14:39:47;;;;;;;;;;;;;;;-5.69;27.77;99101.28;6283011;28;20404;-64
2023/01/15 14:43:08;;;;;;;;;;;;;;;-5.91;28.64;99100.53;6280827;28;19932;-73
2023/01/15 14:46:29;;;;;;;;;;;;;;;-6.20;28.88;99099.53;6287387;28;19928;-72
2023/01/15 14:49:48;;;;;;;;;;;;;;;-6.41;28.78;99094.47;6294615;28;19925;-71
2023/01/15 14:52:52;;;;;;;;;;;;;;;-6.41;29.04;99091.91;6303424;28;19977;-74
2023/01/15 14:56:01;;;;;;;;;;;;;;;-6.34;28.75;99090.44;6300245;28;19931;-73
2023/01/15 14:59:14;;;;;;;;;;;;;;;-6.40;28.19;99092.75;6265523;28;19924;-73
2023/01/15 15:02:32;;;;;;;;;;;;;;;-6.33;27.93;99095.63;6291219;28;19924;-73
2023/01/15 15:05:35;;;;;;;;;;;;;;;-6.05;27.43;99100.91;6258806;28;20390;-72
2023/01/15 15:08:42;;;;;;;;;;;;;;;-6.18;27.37;99089.31;6277015;28;19924;-69
2023/01/15 15:15:26;;;;;;;;;;;;;;;-6.35;28.21;99096.38;6294143;28;20305;-70
2023/01/15 15:18:45;;;;;;;;;;;;;;;-6.41;28.21;99080.78;6285781;28;19929;-69
2023/01/15 15:21:56;;;;;;;;;;;;;;;-6.42;28.44;99092.72;6284309;28;20302;-69
2023/01/15 15:25:00;;;;;;;;;;;;;;;-6.30;28.32;99084.63;6292941;28;19920;-76
2023/01/15 15:28:05;;;;;;;;;;;;;;;-6.53;27.75;99083.75;6283470;28;20420;-68
2023/01/15 15:31:08;;;;;;;;;;;;;;;-6.62;28.78;99080.84;6288243;28;19920;-70
2023/01/15 15:34:38;;;;;;;;;;;;;;;-6.58;28.31;99080.16;6278492;28;19924;-76
2023/01/15 15:37:44;;;;;;;;;;;;;;;-6.71;28.08;99088.16;6271842;28;20023;-72
2023/01/15 15:40:50;;;;;;;;;;;;;;;-6.77;28.69;99081.97;6282960;28;19932;-71
2023/01/15 15:50:38;;;;;;;;;;;;;;;-6.92;28.52;99085.66;6277561;28;19924;-66
2023/01/15 15:53:41;;;;;;;;;;;;;;;-7.16;28.62;99091.53;6281459;28;19924;-66
2023/01/15 15:57:05;;;;;;;;;;;;;;;-6.78;28.56;99100.72;6286487;28;19928;-66
2023/01/15 16:00:16;;;;;;;;;;;;;;;-6.84;28.48;99104.75;6286983;28;20018;-65
2023/01/15 16:03:24;;;;;;;;;;;;;;;-7.16;29.36;99091.53;6305780;28;19924;-66
2023/01/15 16:06:26;;;;;;;;;;;;;;;-7.08;29.08;99090.13;6270031;28;19947;-64
2023/01/15 16:09:27;;;;;;;;;;;;;;;-7.21;29.33;99102.41;6288421;28;19928;-66
2023/01/15 16:12:33;;;;;;;;;;;;;;;-7.29;29.12;99089.28;6264816;28;19929;-64
2023/01/15 16:15:39;;;;;;;;;;;;;;;-7.01;28.88;99096.38;6293318;28;20002;-66
2023/01/15 16:18:45;;;;;;;;;;;;;;;-6.89;28.80;99102.00;6292171;28;19924;-66
2023/01/15 16:21:52;;;;;;;;;;;;;;;-6.97;27.77;99094.81;6285234;28;19924;-66
2023/01/15 16:24:56;;;;;;;;;;;;;;;-7.12;28.35;99092.53;6294851;28;19931;-64
2023/01/15 16:28:00;;;;;;;;;;;;;;;-7.28;28.51;99091.88;6284052;28;19925;-66
2023/01/15 16:31:01;;;;;;;;;;;;;;;-7.19;28.64;99082.84;6278169;28;19925;-65
2023/01/15 16:34:03;;;;;;;;;;;;;;;-7.20;28.56;99086.22;6278122;28;20488;-69
2023/01/15 16:37:17;;;;;;;;;;;;;;;-7.16;28.33;99081.31;6292297;28;20015;-67
2023/01/15 16:40:28;;;;;;;;;;;;;;;-7.45;28.52;99082.66;6295105;28;20393;-68
2023/01/15 16:43:46;;;;;;;;;;;;;;;-7.51;29.40;99082.41;6294186;28;19931;-67
2023/01/15 16:46:57;;;;;;;;;;;;;;;-7.68;29.20;99079.13;6277928;28;19925;-68
2023/01/15 16:50:17;;;;;;;;;;;;;;;-7.88;29.55;99083.38;6285537;28;19924;-68
2023/01/15 16:53:36;;;;;;;;;;;;;;;-7.88;29.99;99085.94;6280521;28;19936;-68
2023/01/15 16:56:54;;;;;;;;;;;;;;;-7.91;29.50;99070.47;6274868;28;19925;-70
2023/01/15 17:00:25;;;;;;;;;;;;;;;-7.90;29.95;99069.66;6222128;28;20043;-66
2023/01/15 17:03:32;;;;;;;;;;;;;;;-7.73;29.53;99070.38;6234290;28;20367;-64
2023/01/15 17:06:36;;;;;;;;;;;;;;;-7.75;29.75;99072.91;6237846;28;19925;-65
2023/01/15 17:09:50;;;;;;;;;;;;;;;-8.10;30.29;99078.16;6244765;28;19929;-67
2023/01/15 17:12:54;;;;;;;;;;;;;;;-8.13;30.38;99069.53;6240884;28;19932;-68